Time,TemperatureF,DewpointF,PressureIn,WindDirection,WindDirectionDegrees,WindSpeedMPH,WindSpeedGustMPH,Humidity,HourlyPrecipIn,Conditions,Clouds,dailyrainin,SoftwareType,DateUTC
2013-12-27 00:00:00,21.2,10.6,28.85,WNW,292,4.0,5.4,63,0.00,,,0.00,VWS V14.01,2013-12-27 06:00:00,
2013-12-27 00:05:00,21.0,10.4,28.85,WNW,292,4.0,4.5,63,0.00,,,0.00,VWS V14.01,2013-12-27 06:05:00,
2013-12-27 00:10:00,20.7,10.1,28.85,WNW,292,4.3,5.4,63,0.00,,,0.00,VWS V14.01,2013-12-27 06:10:00,
2013-12-27 00:15:00,20.3,9.7,28.85,WNW,292,3.6,4.3,63,0.00,,,0.00,VWS V14.01,2013-12-27 06:15:00,
2013-12-27 00:20:00,20.1,9.2,28.85,WNW,292,3.8,5.8,62,0.00,,,0.00,VWS V14.01,2013-12-27 06:20:00,
2013-12-27 00:25:00,20.1,9.2,28.85,West,270,5.4,5.6,62,0.00,,,0.00,VWS V14.01,2013-12-27 06:25:00,
2013-12-27 00:30:00,20.5,9.9,28.85,WSW,248,3.8,6.0,63,0.00,,,0.00,VWS V14.01,2013-12-27 06:30:00,
2013-12-27 00:35:00,20.7,10.4,28.85,WNW,292,4.3,5.6,64,0.00,,,0.00,VWS V14.01,2013-12-27 06:35:00,
2013-12-27 00:40:00,20.7,10.4,28.85,WNW,292,4.0,4.9,64,0.00,,,0.00,VWS V14.01,2013-12-27 06:40:00,
2013-12-27 00:45:00,20.3,10.1,28.85,West,270,4.3,5.8,64,0.00,,,0.00,VWS V14.01,2013-12-27 06:45:00,
2013-12-27 00:50:00,20.3,10.1,28.85,WSW,248,5.6,5.6,64,0.00,,,0.00,VWS V14.01,2013-12-27 06:50:00,
2013-12-27 00:55:00,20.3,10.1,28.85,WSW,248,3.1,5.6,64,0.00,,,0.00,VWS V14.01,2013-12-27 06:55:00,
2013-12-27 01:00:00,19.9,9.4,28.85,WSW,248,2.9,3.1,63,0.00,,,0.00,VWS V14.01,2013-12-27 07:00:00,
2013-12-27 01:05:00,19.6,8.7,28.85,WSW,248,2.7,4.3,62,0.00,,,0.00,VWS V14.01,2013-12-27 07:05:00,
2013-12-27 01:10:00,19.0,8.2,28.85,SW,225,3.6,3.8,62,0.00,,,0.00,VWS V14.01,2013-12-27 07:10:00,
2013-12-27 01:15:00,18.9,8.0,28.85,WSW,248,2.0,3.8,62,0.00,,,0.00,VWS V14.01,2013-12-27 07:15:00,
2013-12-27 01:20:00,18.5,7.7,28.85,WSW,248,3.1,3.4,62,0.00,,,0.00,VWS V14.01,2013-12-27 07:20:00,
2013-12-27 01:25:00,18.3,7.5,28.85,West,270,1.3,3.4,62,0.00,,,0.00,VWS V14.01,2013-12-27 07:25:00,
2013-12-27 01:30:00,17.8,6.6,28.85,WSW,248,2.5,2.7,61,0.00,,,0.00,VWS V14.01,2013-12-27 07:30:00,
2013-12-27 01:35:00,17.6,6.8,28.85,SW,225,2.2,3.4,62,0.00,,,0.00,VWS V14.01,2013-12-27 07:35:00,
2013-12-27 01:40:00,17.4,6.6,28.85,WSW,248,2.2,2.7,62,0.00,,,0.00,VWS V14.01,2013-12-27 07:40:00,
2013-12-27 01:45:00,17.2,6.5,28.85,West,270,1.3,2.2,62,0.00,,,0.00,VWS V14.01,2013-12-27 07:45:00,
2013-12-27 01:50:00,17.1,6.3,28.85,WSW,248,1.1,2.9,62,0.00,,,0.00,VWS V14.01,2013-12-27 07:50:00,
2013-12-27 01:55:00,16.9,6.1,28.85,WNW,292,2.5,2.5,62,0.00,,,0.00,VWS V14.01,2013-12-27 07:55:00,
2013-12-27 02:00:00,16.5,5.8,28.85,WNW,292,2.9,3.4,62,0.00,,,0.00,VWS V14.01,2013-12-27 08:00:00,
2013-12-27 02:05:00,16.5,5.8,28.85,WNW,292,3.1,3.8,62,0.00,,,0.00,VWS V14.01,2013-12-27 08:05:00,
2013-12-27 02:10:00,16.5,6.1,28.85,WNW,292,2.7,3.8,63,0.00,,,0.00,VWS V14.01,2013-12-27 08:10:00,
2013-12-27 02:15:00,16.3,6.0,28.85,WNW,292,2.5,2.7,63,0.00,,,0.00,VWS V14.01,2013-12-27 08:15:00,
2013-12-27 02:20:00,16.2,5.4,28.85,WNW,292,2.2,2.5,62,0.00,,,0.00,VWS V14.01,2013-12-27 08:20:00,
2013-12-27 02:25:00,16.2,5.4,28.85,West,270,4.7,4.7,62,0.00,,,0.00,VWS V14.01,2013-12-27 08:25:00,
2013-12-27 02:30:00,16.9,6.8,28.85,WSW,248,3.4,5.4,64,0.00,,,0.00,VWS V14.01,2013-12-27 08:30:00,
2013-12-27 02:35:00,17.1,7.0,28.88,West,270,2.5,3.8,64,0.00,,,0.00,VWS V14.01,2013-12-27 08:35:00,
2013-12-27 02:40:00,17.1,7.0,28.88,West,270,2.7,3.8,64,0.00,,,0.00,VWS V14.01,2013-12-27 08:40:00,
2013-12-27 02:45:00,17.1,7.0,28.88,WNW,292,2.5,2.9,64,0.00,,,0.00,VWS V14.01,2013-12-27 08:45:00,
2013-12-27 02:50:00,16.9,6.5,28.85,WNW,292,2.7,3.6,63,0.00,,,0.00,VWS V14.01,2013-12-27 08:50:00,
2013-12-27 02:55:00,16.9,6.5,28.85,WSW,248,2.7,2.9,63,0.00,,,0.00,VWS V14.01,2013-12-27 08:55:00,
2013-12-27 03:00:00,16.9,6.5,28.85,WSW,248,3.6,3.6,63,0.00,,,0.00,VWS V14.01,2013-12-27 09:00:00,
2013-12-27 03:05:00,16.9,6.5,28.85,SW,225,3.1,4.0,63,0.00,,,0.00,VWS V14.01,2013-12-27 09:05:00,
2013-12-27 03:10:00,16.7,6.3,28.85,WSW,248,3.8,4.0,63,0.00,,,0.00,VWS V14.01,2013-12-27 09:10:00,
2013-12-27 03:15:00,16.7,6.3,28.85,WSW,248,2.5,4.3,63,0.00,,,0.00,VWS V14.01,2013-12-27 09:15:00,
2013-12-27 03:20:00,16.7,6.3,28.85,WNW,292,2.9,3.6,63,0.00,,,0.00,VWS V14.01,2013-12-27 09:20:00,
2013-12-27 03:25:00,16.2,5.8,28.85,WNW,292,2.9,3.4,63,0.00,,,0.00,VWS V14.01,2013-12-27 09:25:00,
2013-12-27 03:30:00,16.3,6.0,28.85,WSW,248,2.0,4.3,63,0.00,,,0.00,VWS V14.01,2013-12-27 09:30:00,
2013-12-27 03:35:00,16.5,6.5,28.85,WSW,248,3.8,5.8,64,0.00,,,0.00,VWS V14.01,2013-12-27 09:35:00,
2013-12-27 03:40:00,17.1,7.7,28.85,WSW,248,4.0,6.3,66,0.00,,,0.00,VWS V14.01,2013-12-27 09:40:00,
2013-12-27 03:45:00,17.4,8.4,28.85,WSW,248,4.0,5.6,67,0.00,,,0.00,VWS V14.01,2013-12-27 09:45:00,
2013-12-27 03:50:00,17.4,8.7,28.85,WSW,248,3.6,5.6,68,0.00,,,0.00,VWS V14.01,2013-12-27 09:50:00,
2013-12-27 03:55:00,17.2,8.2,28.85,WSW,248,3.1,5.4,67,0.00,,,0.00,VWS V14.01,2013-12-27 09:55:00,
2013-12-27 04:00:00,17.1,7.7,28.85,WSW,248,3.6,5.4,66,0.00,,,0.00,VWS V14.01,2013-12-27 10:00:00,
2013-12-27 04:05:00,16.9,7.5,28.85,WSW,248,4.0,4.3,66,0.00,,,0.00,VWS V14.01,2013-12-27 10:05:00,
2013-12-27 04:10:00,16.7,7.3,28.85,West,270,3.4,4.0,66,0.00,,,0.00,VWS V14.01,2013-12-27 10:10:00,
2013-12-27 04:15:00,17.1,8.0,28.85,WNW,292,3.1,4.0,67,0.00,,,0.00,VWS V14.01,2013-12-27 10:15:00,
2013-12-27 04:20:00,17.2,8.8,28.85,WNW,292,2.9,4.3,69,0.00,,,0.00,VWS V14.01,2013-12-27 10:20:00,
2013-12-27 04:25:00,17.1,8.3,28.85,SW,225,3.6,4.3,68,0.00,,,0.00,VWS V14.01,2013-12-27 10:25:00,
2013-12-27 04:30:00,16.9,7.8,28.85,WSW,248,3.1,4.0,67,0.00,,,0.00,VWS V14.01,2013-12-27 10:30:00,
2013-12-27 04:35:00,16.7,7.7,28.85,SW,225,3.4,5.4,67,0.00,,,0.00,VWS V14.01,2013-12-27 10:35:00,
2013-12-27 04:40:00,16.7,7.7,28.85,WSW,248,5.6,6.5,67,0.00,,,0.00,VWS V14.01,2013-12-27 10:40:00,
2013-12-27 04:45:00,16.7,7.7,28.85,SW,225,4.0,6.3,67,0.00,,,0.00,VWS V14.01,2013-12-27 10:45:00,
2013-12-27 04:50:00,16.7,7.7,28.85,SSW,202,2.9,5.6,67,0.00,,,0.00,VWS V14.01,2013-12-27 10:50:00,
2013-12-27 04:55:00,16.5,7.5,28.85,SW,225,5.4,6.5,67,0.00,,,0.00,VWS V14.01,2013-12-27 10:55:00,
2013-12-27 05:00:00,16.7,8.0,28.85,SW,225,6.0,6.5,68,0.00,,,0.00,VWS V14.01,2013-12-27 11:00:00,
2013-12-27 05:05:00,16.9,8.5,28.85,SSW,202,6.0,6.7,69,0.00,,,0.00,VWS V14.01,2013-12-27 11:05:00,
2013-12-27 05:10:00,16.9,8.5,28.85,SSW,202,5.8,6.5,69,0.00,,,0.00,VWS V14.01,2013-12-27 11:10:00,
2013-12-27 05:15:00,17.1,9.0,28.85,SSW,202,4.3,6.5,70,0.00,,,0.00,VWS V14.01,2013-12-27 11:15:00,
2013-12-27 05:20:00,16.9,8.5,28.85,SSW,202,5.4,5.6,69,0.00,,,0.00,VWS V14.01,2013-12-27 11:20:00,
2013-12-27 05:25:00,16.9,8.2,28.85,SSW,202,5.4,5.8,68,0.00,,,0.00,VWS V14.01,2013-12-27 11:25:00,
2013-12-27 05:30:00,17.4,9.3,28.85,SSW,202,5.6,6.5,70,0.00,,,0.00,VWS V14.01,2013-12-27 11:30:00,
2013-12-27 05:35:00,17.8,10.0,28.85,SSW,202,6.0,6.5,71,0.00,,,0.00,VWS V14.01,2013-12-27 11:35:00,
2013-12-27 05:40:00,18.0,10.2,28.85,SSW,202,6.3,6.5,71,0.00,,,0.00,VWS V14.01,2013-12-27 11:40:00,
2013-12-27 05:45:00,18.1,10.3,28.85,SSW,202,4.9,6.5,71,0.00,,,0.00,VWS V14.01,2013-12-27 11:45:00,
2013-12-27 05:50:00,18.5,11.0,28.82,SSW,202,5.4,6.5,72,0.00,,,0.00,VWS V14.01,2013-12-27 11:50:00,
2013-12-27 05:55:00,18.7,11.5,28.82,SSW,202,6.3,7.2,73,0.00,,,0.00,VWS V14.01,2013-12-27 11:55:00,
2013-12-27 06:00:00,18.7,11.5,28.82,SSW,202,6.0,6.5,73,0.00,,,0.00,VWS V14.01,2013-12-27 12:00:00,
2013-12-27 06:05:00,18.5,11.0,28.82,SW,225,6.5,6.9,72,0.00,,,0.00,VWS V14.01,2013-12-27 12:05:00,
2013-12-27 06:10:00,18.9,11.6,28.82,SSW,202,7.4,7.8,73,0.00,,,0.00,VWS V14.01,2013-12-27 12:10:00,
2013-12-27 06:15:00,19.2,12.0,28.82,SW,225,6.7,8.1,73,0.00,,,0.00,VWS V14.01,2013-12-27 12:15:00,
2013-12-27 06:20:00,19.4,12.5,28.82,SW,225,7.8,8.7,74,0.00,,,0.00,VWS V14.01,2013-12-27 12:20:00,
2013-12-27 06:25:00,19.6,12.4,28.82,SW,225,6.7,8.1,73,0.00,,,0.00,VWS V14.01,2013-12-27 12:25:00,
2013-12-27 06:30:00,19.8,12.8,28.82,SSW,202,6.7,8.7,74,0.00,,,0.00,VWS V14.01,2013-12-27 12:30:00,
2013-12-27 06:35:00,19.8,12.8,28.82,SW,225,7.8,7.8,74,0.00,,,0.00,VWS V14.01,2013-12-27 12:35:00,
2013-12-27 06:40:00,19.8,12.5,28.82,SSW,202,7.4,8.1,73,0.00,,,0.00,VWS V14.01,2013-12-27 12:40:00,
2013-12-27 06:45:00,19.8,12.5,28.82,SSW,202,7.4,8.1,73,0.00,,,0.00,VWS V14.01,2013-12-27 12:45:00,
2013-12-27 06:50:00,19.4,11.9,28.82,SW,225,5.8,7.4,72,0.00,,,0.00,VWS V14.01,2013-12-27 12:50:00,
2013-12-27 06:55:00,19.0,10.9,28.82,SW,225,6.3,6.5,70,0.00,,,0.00,VWS V14.01,2013-12-27 12:55:00,
2013-12-27 07:00:00,18.7,10.5,28.82,SW,225,5.6,6.5,70,0.00,,,0.00,VWS V14.01,2013-12-27 13:00:00,
2013-12-27 07:05:00,18.9,10.4,28.82,SW,225,8.5,8.5,69,0.00,,,0.00,VWS V14.01,2013-12-27 13:05:00,
2013-12-27 07:10:00,19.0,10.9,28.82,SW,225,6.3,8.5,70,0.00,,,0.00,VWS V14.01,2013-12-27 13:10:00,
2013-12-27 07:15:00,19.0,10.9,28.82,SW,225,6.3,7.2,70,0.00,,,0.00,VWS V14.01,2013-12-27 13:15:00,
2013-12-27 07:20:00,19.2,11.4,28.82,SW,225,5.6,7.2,71,0.00,,,0.00,VWS V14.01,2013-12-27 13:20:00,
2013-12-27 07:25:00,19.2,11.4,28.82,SSW,202,5.4,6.5,71,0.00,,,0.00,VWS V14.01,2013-12-27 13:25:00,
2013-12-27 07:30:00,19.6,11.7,28.82,SSW,202,4.9,8.1,71,0.00,,,0.00,VWS V14.01,2013-12-27 13:30:00,
2013-12-27 07:35:00,19.8,12.2,28.82,SSW,202,6.0,6.7,72,0.00,,,0.00,VWS V14.01,2013-12-27 13:35:00,
2013-12-27 07:40:00,19.8,12.2,28.82,SSW,202,6.3,7.8,72,0.00,,,0.00,VWS V14.01,2013-12-27 13:40:00,
2013-12-27 07:45:00,19.9,12.4,28.82,SSW,202,6.5,8.5,72,0.00,,,0.00,VWS V14.01,2013-12-27 13:45:00,
2013-12-27 07:50:00,19.9,12.1,28.82,SSW,202,4.7,7.2,71,0.00,,,0.00,VWS V14.01,2013-12-27 13:50:00,
2013-12-27 07:55:00,19.8,11.6,28.82,SSW,202,6.3,6.3,70,0.00,,,0.00,VWS V14.01,2013-12-27 13:55:00,
2013-12-27 08:00:00,20.1,12.2,28.82,SSW,202,6.5,7.2,71,0.00,,,0.00,VWS V14.01,2013-12-27 14:00:00,
2013-12-27 08:05:00,20.7,13.1,28.82,SSW,202,6.3,7.2,72,0.00,,,0.00,VWS V14.01,2013-12-27 14:05:00,
2013-12-27 08:10:00,21.2,13.9,28.82,SSW,202,6.3,7.6,73,0.00,,,0.00,VWS V14.01,2013-12-27 14:10:00,
2013-12-27 08:15:00,21.7,14.4,28.82,SSW,202,5.6,7.6,73,0.00,,,0.00,VWS V14.01,2013-12-27 14:15:00,
2013-12-27 08:20:00,21.7,13.8,28.82,SSW,202,5.4,6.5,71,0.00,,,0.00,VWS V14.01,2013-12-27 14:20:00,
2013-12-27 08:25:00,21.9,14.0,28.82,SSW,202,6.3,7.8,71,0.00,,,0.00,VWS V14.01,2013-12-27 14:25:00,
2013-12-27 08:30:00,22.1,13.8,28.82,SSW,202,7.2,8.1,70,0.00,,,0.00,VWS V14.01,2013-12-27 14:30:00,
2013-12-27 08:35:00,22.5,13.8,28.82,SSW,202,8.7,8.7,69,0.00,,,0.00,VWS V14.01,2013-12-27 14:35:00,
2013-12-27 08:40:00,22.8,14.2,28.82,SSW,202,6.7,8.7,69,0.00,,,0.00,VWS V14.01,2013-12-27 14:40:00,
2013-12-27 08:45:00,23.5,14.9,28.82,SSW,202,8.5,8.7,69,0.00,,,0.00,VWS V14.01,2013-12-27 14:45:00,
2013-12-27 08:50:00,24.1,15.4,28.79,SSW,202,9.4,9.6,69,0.00,,,0.00,VWS V14.01,2013-12-27 14:50:00,
2013-12-27 08:55:00,25.0,16.6,28.79,SSW,202,5.6,9.8,70,0.00,,,0.00,VWS V14.01,2013-12-27 14:55:00,
2013-12-27 09:00:00,26.4,18.6,28.79,SW,225,10.3,10.3,72,0.00,,,0.00,VWS V14.01,2013-12-27 15:00:00,
2013-12-27 09:05:00,27.9,20.0,28.79,SSW,202,10.5,10.5,72,0.00,,,0.00,VWS V14.01,2013-12-27 15:05:00,
2013-12-27 09:10:00,28.9,20.7,28.79,SSW,202,7.4,10.7,71,0.00,,,0.00,VWS V14.01,2013-12-27 15:10:00,
2013-12-27 09:15:00,30.2,21.3,28.79,SSW,202,10.5,12.1,69,0.00,,,0.00,VWS V14.01,2013-12-27 15:15:00,
2013-12-27 09:20:00,31.3,21.3,28.79,SSW,202,8.5,12.1,66,0.00,,,0.00,VWS V14.01,2013-12-27 15:20:00,
2013-12-27 09:25:00,31.8,20.7,28.79,SSW,202,10.3,12.8,63,0.00,,,0.00,VWS V14.01,2013-12-27 15:25:00,
2013-12-27 09:30:00,32.0,19.3,28.79,SW,225,7.8,12.3,59,0.00,,,0.00,VWS V14.01,2013-12-27 15:30:00,
2013-12-27 09:35:00,32.4,20.0,28.79,SSW,202,10.1,12.3,60,0.00,,,0.00,VWS V14.01,2013-12-27 15:35:00,
2013-12-27 09:40:00,32.7,20.4,28.79,SSW,202,13.2,13.2,60,0.00,,,0.00,VWS V14.01,2013-12-27 15:40:00,
2013-12-27 09:45:00,33.3,20.9,28.79,SSW,202,12.3,14.3,60,0.00,,,0.00,VWS V14.01,2013-12-27 15:45:00,
2013-12-27 10:00:00,34.9,21.2,28.79,SW,225,10.5,12.8,57,0.00,,,0.00,VWS V14.01,2013-12-27 16:00:00,
2013-12-27 10:05:00,35.8,21.6,28.79,SSW,202,12.3,13.2,56,0.00,,,0.00,VWS V14.01,2013-12-27 16:05:00,
2013-12-27 10:10:00,36.7,22.0,28.79,SW,225,7.8,12.8,55,0.00,,,0.00,VWS V14.01,2013-12-27 16:10:00,
2013-12-27 10:15:00,37.9,22.4,28.79,SSW,202,9.8,13.2,53,0.00,,,0.00,VWS V14.01,2013-12-27 16:15:00,
2013-12-27 10:20:00,39.2,22.1,28.79,SSW,202,11.2,15.2,50,0.00,,,0.00,VWS V14.01,2013-12-27 16:20:00,
2013-12-27 10:25:00,39.9,22.3,28.79,SW,225,9.6,15.4,49,0.00,,,0.00,VWS V14.01,2013-12-27 16:25:00,
2013-12-27 10:30:00,41.5,22.3,28.79,SSW,202,11.9,13.2,46,0.00,,,0.00,VWS V14.01,2013-12-27 16:30:00,
2013-12-27 10:35:00,42.6,21.7,28.79,SSW,202,12.1,16.6,43,0.00,,,0.00,VWS V14.01,2013-12-27 16:35:00,
2013-12-27 10:40:00,43.5,22.0,28.79,SSW,202,10.1,14.8,42,0.00,,,0.00,VWS V14.01,2013-12-27 16:40:00,
2013-12-27 10:45:00,44.2,21.5,28.79,SSW,202,14.8,15.4,40,0.00,,,0.00,VWS V14.01,2013-12-27 16:45:00,
2013-12-27 10:50:00,45.1,21.7,28.79,SSW,202,13.0,17.5,39,0.00,,,0.00,VWS V14.01,2013-12-27 16:50:00,
2013-12-27 10:55:00,45.5,22.0,28.79,SSW,202,17.0,17.0,39,0.00,,,0.00,VWS V14.01,2013-12-27 16:55:00,
2013-12-27 11:00:00,46.2,22.0,28.79,SW,225,13.0,17.0,38,0.00,,,0.00,VWS V14.01,2013-12-27 17:00:00,
2013-12-27 11:05:00,46.9,22.7,28.76,SW,225,12.8,17.0,38,0.00,,,0.00,VWS V14.01,2013-12-27 17:05:00,
2013-12-27 11:10:00,47.3,22.4,28.76,SW,225,18.1,21.5,37,0.00,,,0.00,VWS V14.01,2013-12-27 17:10:00,
2013-12-27 11:15:00,48.0,23.0,28.76,SW,225,13.0,18.8,37,0.00,,,0.00,VWS V14.01,2013-12-27 17:15:00,
2013-12-27 11:20:00,48.6,22.8,28.76,SW,225,17.5,17.7,36,0.00,,,0.00,VWS V14.01,2013-12-27 17:20:00,
2013-12-27 11:25:00,48.7,22.3,28.76,SW,225,19.5,19.7,35,0.00,,,0.00,VWS V14.01,2013-12-27 17:25:00,
2013-12-27 11:30:00,49.3,22.1,28.76,SW,225,18.6,22.2,34,0.00,,,0.00,VWS V14.01,2013-12-27 17:30:00,
2013-12-27 11:35:00,49.6,21.7,28.73,SW,225,18.8,19.7,33,0.00,,,0.00,VWS V14.01,2013-12-27 17:35:00,
2013-12-27 11:40:00,50.0,21.3,28.73,SW,225,16.3,21.5,32,0.00,,,0.00,VWS V14.01,2013-12-27 17:40:00,
2013-12-27 11:45:00,50.7,22.0,28.73,SW,225,17.9,17.9,32,0.00,,,0.00,VWS V14.01,2013-12-27 17:45:00,
2013-12-27 11:50:00,50.4,20.9,28.73,SW,225,17.2,25.3,31,0.00,,,0.00,VWS V14.01,2013-12-27 17:50:00,
2013-12-27 11:55:00,50.5,21.0,28.73,SW,225,17.9,23.0,31,0.00,,,0.00,VWS V14.01,2013-12-27 17:55:00,
2013-12-27 12:00:00,51.3,20.9,28.73,SW,225,17.5,22.4,30,0.00,,,0.00,VWS V14.01,2013-12-27 18:00:00,
2013-12-27 12:05:00,51.8,21.4,28.73,SW,225,13.0,20.6,30,0.00,,,0.00,VWS V14.01,2013-12-27 18:05:00,
2013-12-27 12:10:00,52.7,22.2,28.73,SW,225,12.8,19.7,30,0.00,,,0.00,VWS V14.01,2013-12-27 18:10:00,
2013-12-27 12:15:00,53.2,22.6,28.73,SW,225,15.2,20.1,30,0.00,,,0.00,VWS V14.01,2013-12-27 18:15:00,
2013-12-27 12:20:00,53.2,21.8,28.73,SW,225,15.9,20.4,29,0.00,,,0.00,VWS V14.01,2013-12-27 18:20:00,
2013-12-27 12:25:00,53.6,21.3,28.73,SSW,202,19.5,21.0,28,0.00,,,0.00,VWS V14.01,2013-12-27 18:25:00,
2013-12-27 12:30:00,54.0,21.6,28.73,WSW,248,15.4,21.5,28,0.00,,,0.00,VWS V14.01,2013-12-27 18:30:00,
2013-12-27 12:35:00,54.3,21.9,28.73,SW,225,15.4,28.4,28,0.00,,,0.00,VWS V14.01,2013-12-27 18:35:00,
2013-12-27 12:40:00,54.7,22.2,28.73,WSW,248,23.3,23.3,28,0.00,,,0.00,VWS V14.01,2013-12-27 18:40:00,
2013-12-27 12:45:00,54.9,22.4,28.73,SW,225,19.9,25.3,28,0.00,,,0.00,VWS V14.01,2013-12-27 18:45:00,
2013-12-27 12:50:00,55.0,21.7,28.70,WSW,248,17.0,23.7,27,0.00,,,0.00,VWS V14.01,2013-12-27 18:50:00,
2013-12-27 12:55:00,55.6,22.1,28.70,SW,225,19.9,22.2,27,0.00,,,0.00,VWS V14.01,2013-12-27 18:55:00,
2013-12-27 13:00:00,55.8,22.3,28.70,WSW,248,19.7,24.2,27,0.00,,,0.00,VWS V14.01,2013-12-27 19:00:00,
2013-12-27 13:05:00,55.9,22.5,28.70,WSW,248,14.3,20.4,27,0.00,,,0.00,VWS V14.01,2013-12-27 19:05:00,
2013-12-27 13:10:00,56.5,22.9,28.70,SW,225,12.3,17.7,27,0.00,,,0.00,VWS V14.01,2013-12-27 19:10:00,
2013-12-27 13:15:00,56.8,23.2,28.70,WSW,248,15.4,17.7,27,0.00,,,0.00,VWS V14.01,2013-12-27 19:15:00,
2013-12-27 13:20:00,57.6,23.0,28.70,SW,225,12.1,19.7,26,0.00,,,0.00,VWS V14.01,2013-12-27 19:20:00,
2013-12-27 13:25:00,57.6,23.0,28.70,SW,225,17.7,21.9,26,0.00,,,0.00,VWS V14.01,2013-12-27 19:25:00,
2013-12-27 13:30:00,57.7,23.1,28.70,SW,225,17.2,21.0,26,0.00,,,0.00,VWS V14.01,2013-12-27 19:30:00,
2013-12-27 13:35:00,57.7,23.1,28.70,WSW,248,18.8,23.3,26,0.00,,,0.00,VWS V14.01,2013-12-27 19:35:00,
2013-12-27 13:40:00,56.8,22.3,28.70,WSW,248,12.5,20.6,26,0.00,,,0.00,VWS V14.01,2013-12-27 19:40:00,
2013-12-27 13:45:00,56.8,22.3,28.70,WSW,248,13.0,22.2,26,0.00,,,0.00,VWS V14.01,2013-12-27 19:45:00,
2013-12-27 13:50:00,57.0,22.5,28.67,WSW,248,17.7,19.0,26,0.00,,,0.00,VWS V14.01,2013-12-27 19:50:00,
2013-12-27 13:55:00,56.8,22.3,28.67,SW,225,14.8,20.8,26,0.00,,,0.00,VWS V14.01,2013-12-27 19:55:00,
2013-12-27 14:00:00,56.8,22.3,28.67,WSW,248,10.5,21.9,26,0.00,,,0.00,VWS V14.01,2013-12-27 20:00:00,
2013-12-27 14:05:00,56.3,21.9,28.70,WSW,248,19.9,19.9,26,0.00,,,0.00,VWS V14.01,2013-12-27 20:05:00,
2013-12-27 14:10:00,55.6,21.3,28.70,WSW,248,14.8,19.9,26,0.00,,,0.00,VWS V14.01,2013-12-27 20:10:00,
2013-12-27 14:15:00,55.2,21.0,28.70,WSW,248,10.7,17.0,26,0.00,,,0.00,VWS V14.01,2013-12-27 20:15:00,
2013-12-27 14:20:00,54.9,20.6,28.67,WSW,248,16.3,16.3,26,0.00,,,0.00,VWS V14.01,2013-12-27 20:20:00,
2013-12-27 14:25:00,54.9,20.6,28.67,WSW,248,9.0,16.3,26,0.00,,,0.00,VWS V14.01,2013-12-27 20:25:00,
2013-12-27 14:30:00,55.2,21.0,28.67,WSW,248,11.4,13.9,26,0.00,,,0.00,VWS V14.01,2013-12-27 20:30:00,
2013-12-27 14:35:00,55.6,21.3,28.70,WSW,248,8.5,12.8,26,0.00,,,0.00,VWS V14.01,2013-12-27 20:35:00,
2013-12-27 14:40:00,55.4,21.1,28.70,WSW,248,10.3,13.2,26,0.00,,,0.00,VWS V14.01,2013-12-27 20:40:00,
2013-12-27 14:45:00,55.4,21.1,28.70,WSW,248,10.1,13.9,26,0.00,,,0.00,VWS V14.01,2013-12-27 20:45:00,
2013-12-27 14:50:00,55.0,20.8,28.70,SW,225,11.4,14.3,26,0.00,,,0.00,VWS V14.01,2013-12-27 20:50:00,
2013-12-27 14:55:00,54.5,20.3,28.70,SW,225,13.4,14.8,26,0.00,,,0.00,VWS V14.01,2013-12-27 20:55:00,
2013-12-27 15:00:00,54.5,20.3,28.70,WSW,248,9.2,14.5,26,0.00,,,0.00,VWS V14.01,2013-12-27 21:00:00,
2013-12-27 15:05:00,54.3,20.2,28.67,West,270,12.1,14.1,26,0.00,,,0.00,VWS V14.01,2013-12-27 21:05:00,
2013-12-27 15:10:00,54.1,20.0,28.67,WSW,248,11.2,12.3,26,0.00,,,0.00,VWS V14.01,2013-12-27 21:10:00,
2013-12-27 15:15:00,54.0,19.9,28.67,WSW,248,11.0,14.1,26,0.00,,,0.00,VWS V14.01,2013-12-27 21:15:00,
2013-12-27 15:20:00,54.0,19.9,28.70,WSW,248,11.0,15.4,26,0.00,,,0.00,VWS V14.01,2013-12-27 21:20:00,
2013-12-27 15:25:00,53.6,19.6,28.70,West,270,10.1,13.9,26,0.00,,,0.00,VWS V14.01,2013-12-27 21:25:00,
2013-12-27 15:30:00,53.2,20.1,28.70,WSW,248,9.4,13.2,27,0.00,,,0.00,VWS V14.01,2013-12-27 21:30:00,
2013-12-27 15:35:00,53.1,20.0,28.70,WSW,248,10.3,12.5,27,0.00,,,0.00,VWS V14.01,2013-12-27 21:35:00,
2013-12-27 15:40:00,52.9,19.8,28.70,WSW,248,10.5,13.0,27,0.00,,,0.00,VWS V14.01,2013-12-27 21:40:00,
2013-12-27 15:45:00,52.5,19.5,28.70,WSW,248,10.3,12.5,27,0.00,,,0.00,VWS V14.01,2013-12-27 21:45:00,
2013-12-27 15:50:00,52.3,19.4,28.70,WSW,248,6.0,10.3,27,0.00,,,0.00,VWS V14.01,2013-12-27 21:50:00,
2013-12-27 15:55:00,52.0,19.1,28.70,WSW,248,10.1,10.7,27,0.00,,,0.00,VWS V14.01,2013-12-27 21:55:00,
2013-12-27 16:00:00,51.6,18.8,28.70,WSW,248,4.9,10.1,27,0.00,,,0.00,VWS V14.01,2013-12-27 22:00:00,
2013-12-27 16:05:00,51.1,18.3,28.70,WNW,292,5.4,7.6,27,0.00,,,0.00,VWS V14.01,2013-12-27 22:05:00,
2013-12-27 16:10:00,50.7,18.0,28.70,WSW,248,5.4,9.0,27,0.00,,,0.00,VWS V14.01,2013-12-27 22:10:00,
2013-12-27 16:15:00,50.2,17.5,28.70,WSW,248,5.8,6.3,27,0.00,,,0.00,VWS V14.01,2013-12-27 22:15:00,
2013-12-27 16:20:00,49.5,17.7,28.70,WSW,248,8.7,11.0,28,0.00,,,0.00,VWS V14.01,2013-12-27 22:20:00,
2013-12-27 16:25:00,48.9,17.3,28.70,WSW,248,5.8,9.0,28,0.00,,,0.00,VWS V14.01,2013-12-27 22:25:00,
2013-12-27 16:30:00,48.6,17.0,28.70,WSW,248,6.7,8.1,28,0.00,,,0.00,VWS V14.01,2013-12-27 22:30:00,
2013-12-27 16:35:00,47.8,17.1,28.73,WNW,292,5.4,7.8,29,0.00,,,0.00,VWS V14.01,2013-12-27 22:35:00,
2013-12-27 16:40:00,46.9,16.4,28.73,WSW,248,7.4,7.4,29,0.00,,,0.00,VWS V14.01,2013-12-27 22:40:00,
2013-12-27 16:45:00,45.7,16.0,28.73,WNW,292,7.4,8.7,30,0.00,,,0.00,VWS V14.01,2013-12-27 22:45:00,
2013-12-27 16:50:00,44.4,15.7,28.73,WNW,292,6.0,8.1,31,0.00,,,0.00,VWS V14.01,2013-12-27 22:50:00,
2013-12-27 16:55:00,43.3,14.8,28.73,West,270,7.6,7.8,31,0.00,,,0.00,VWS V14.01,2013-12-27 22:55:00,
2013-12-27 17:00:00,42.4,15.4,28.73,WNW,292,6.0,8.1,33,0.00,,,0.00,VWS V14.01,2013-12-27 23:00:00,
2013-12-27 17:05:00,41.5,15.3,28.73,WNW,292,7.8,7.8,34,0.00,,,0.00,VWS V14.01,2013-12-27 23:05:00,
2013-12-27 17:10:00,41.0,15.5,28.73,WNW,292,6.5,7.8,35,0.00,,,0.00,VWS V14.01,2013-12-27 23:10:00,
2013-12-27 17:15:00,40.8,17.2,28.73,West,270,5.8,8.1,38,0.00,,,0.00,VWS V14.01,2013-12-27 23:15:00,
2013-12-27 17:20:00,41.2,17.5,28.70,West,270,7.6,8.1,38,0.00,,,0.00,VWS V14.01,2013-12-27 23:20:00,
2013-12-27 17:25:00,41.0,17.4,28.70,WNW,292,7.8,8.7,38,0.00,,,0.00,VWS V14.01,2013-12-27 23:25:00,
2013-12-27 17:30:00,40.8,17.8,28.70,WNW,292,7.4,7.8,39,0.00,,,0.00,VWS V14.01,2013-12-27 23:30:00,
2013-12-27 17:35:00,39.9,17.0,28.73,WNW,292,5.6,7.4,39,0.00,,,0.00,VWS V14.01,2013-12-27 23:35:00,
2013-12-27 17:40:00,39.2,16.3,28.73,WSW,248,6.0,7.2,39,0.00,,,0.00,VWS V14.01,2013-12-27 23:40:00,
2013-12-27 17:45:00,38.8,16.6,28.73,WNW,292,7.4,7.8,40,0.00,,,0.00,VWS V14.01,2013-12-27 23:45:00,
2013-12-27 17:50:00,38.8,17.2,28.73,West,270,6.3,8.7,41,0.00,,,0.00,VWS V14.01,2013-12-27 23:50:00,
2013-12-27 17:55:00,38.7,17.0,28.73,WNW,292,6.0,7.6,41,0.00,,,0.00,VWS V14.01,2013-12-27 23:55:00,
2013-12-27 18:00:00,38.5,16.8,28.73,West,270,5.8,7.2,41,0.00,,,0.00,VWS V14.01,2013-12-28 00:00:00,
2013-12-27 18:05:00,38.5,16.8,28.73,WNW,292,7.2,7.4,41,0.00,,,0.00,VWS V14.01,2013-12-28 00:05:00,
2013-12-27 18:10:00,38.1,17.1,28.73,WNW,292,5.6,7.4,42,0.00,,,0.00,VWS V14.01,2013-12-28 00:10:00,
2013-12-27 18:15:00,37.8,16.8,28.73,West,270,5.6,7.2,42,0.00,,,0.00,VWS V14.01,2013-12-28 00:15:00,
2013-12-27 18:20:00,37.6,16.6,28.73,West,270,4.7,7.4,42,0.00,,,0.00,VWS V14.01,2013-12-28 00:20:00,
2013-12-27 18:25:00,37.8,17.3,28.73,WNW,292,4.9,6.7,43,0.00,,,0.00,VWS V14.01,2013-12-28 00:25:00,
2013-12-27 18:30:00,37.9,17.5,28.73,WNW,292,4.3,7.4,43,0.00,,,0.00,VWS V14.01,2013-12-28 00:30:00,
2013-12-27 18:35:00,37.8,17.3,28.73,WNW,292,5.4,7.6,43,0.00,,,0.00,VWS V14.01,2013-12-28 00:35:00,
2013-12-27 18:40:00,37.2,16.8,28.73,WNW,292,4.9,6.5,43,0.00,,,0.00,VWS V14.01,2013-12-28 00:40:00,
2013-12-27 18:45:00,37.2,17.3,28.73,WNW,292,6.0,7.4,44,0.00,,,0.00,VWS V14.01,2013-12-28 00:45:00,
2013-12-27 18:50:00,37.9,18.5,28.73,WNW,292,7.4,8.1,45,0.00,,,0.00,VWS V14.01,2013-12-28 00:50:00,
2013-12-27 18:55:00,38.1,18.7,28.73,WNW,292,6.0,7.4,45,0.00,,,0.00,VWS V14.01,2013-12-28 00:55:00,
2013-12-27 19:00:00,38.3,18.8,28.73,WNW,292,7.4,8.5,45,0.00,,,0.00,VWS V14.01,2013-12-28 01:00:00,
2013-12-27 19:05:00,38.5,19.0,28.73,WNW,292,6.5,8.7,45,0.00,,,0.00,VWS V14.01,2013-12-28 01:05:00,
2013-12-27 19:10:00,38.1,18.7,28.73,NW,315,4.7,7.4,45,0.00,,,0.00,VWS V14.01,2013-12-28 01:10:00,
2013-12-27 19:15:00,37.9,18.0,28.73,West,270,6.5,8.1,44,0.00,,,0.00,VWS V14.01,2013-12-28 01:15:00,
2013-12-27 19:20:00,37.6,18.2,28.73,WNW,292,5.4,7.4,45,0.00,,,0.00,VWS V14.01,2013-12-28 01:20:00,
2013-12-27 19:25:00,37.9,19.5,28.73,West,270,6.5,9.6,47,0.00,,,0.00,VWS V14.01,2013-12-28 01:25:00,
2013-12-27 19:30:00,38.8,20.4,28.73,WSW,248,6.0,12.3,47,0.00,,,0.00,VWS V14.01,2013-12-28 01:30:00,
2013-12-27 19:35:00,38.8,19.3,28.73,WNW,292,6.5,7.4,45,0.00,,,0.00,VWS V14.01,2013-12-28 01:35:00,
2013-12-27 19:40:00,38.5,19.0,28.73,WNW,292,7.4,8.7,45,0.00,,,0.00,VWS V14.01,2013-12-28 01:40:00,
2013-12-27 19:45:00,38.1,18.7,28.73,WNW,292,5.6,8.7,45,0.00,,,0.00,VWS V14.01,2013-12-28 01:45:00,
2013-12-27 19:50:00,37.6,17.7,28.73,West,270,4.9,7.6,44,0.00,,,0.00,VWS V14.01,2013-12-28 01:50:00,
2013-12-27 19:55:00,37.2,17.9,28.73,WSW,248,3.4,6.5,45,0.00,,,0.00,VWS V14.01,2013-12-28 01:55:00,
2013-12-27 20:00:00,36.5,17.2,28.73,WSW,248,5.4,5.6,45,0.00,,,0.00,VWS V14.01,2013-12-28 02:00:00,
2013-12-27 20:05:00,36.0,16.7,28.73,SW,225,4.7,6.0,45,0.00,,,0.00,VWS V14.01,2013-12-28 02:05:00,
2013-12-27 20:10:00,35.4,16.7,28.73,WSW,248,2.5,5.4,46,0.00,,,0.00,VWS V14.01,2013-12-28 02:10:00,
2013-12-27 20:15:00,34.9,15.7,28.73,WSW,248,3.8,4.3,45,0.00,,,0.00,VWS V14.01,2013-12-28 02:15:00,
2013-12-27 20:20:00,34.3,15.7,28.73,WSW,248,4.0,4.3,46,0.00,,,0.00,VWS V14.01,2013-12-28 02:20:00,
2013-12-27 20:25:00,34.0,15.9,28.73,WSW,248,5.6,5.8,47,0.00,,,0.00,VWS V14.01,2013-12-28 02:25:00,
2013-12-27 20:30:00,34.0,16.8,28.73,West,270,3.4,5.6,49,0.00,,,0.00,VWS V14.01,2013-12-28 02:30:00,
2013-12-27 20:35:00,33.8,16.7,28.73,West,270,2.0,3.4,49,0.00,,,0.00,VWS V14.01,2013-12-28 02:35:00,
2013-12-27 20:40:00,33.3,15.7,28.73,WNW,292,2.5,2.9,48,0.00,,,0.00,VWS V14.01,2013-12-28 02:40:00,
2013-12-27 20:45:00,32.7,15.2,28.73,WNW,292,3.1,3.1,48,0.00,,,0.00,VWS V14.01,2013-12-28 02:45:00,
2013-12-27 20:50:00,32.4,14.9,28.73,WNW,292,1.6,3.8,48,0.00,,,0.00,VWS V14.01,2013-12-28 02:50:00,
2013-12-27 20:55:00,32.2,15.2,28.73,WNW,292,3.1,3.4,49,0.00,,,0.00,VWS V14.01,2013-12-28 02:55:00,
2013-12-27 21:00:00,31.8,15.3,28.73,WNW,292,0.0,3.8,50,0.00,,,0.00,VWS V14.01,2013-12-28 03:00:00,
2013-12-27 21:05:00,31.6,15.1,28.73,WSW,248,2.2,2.5,50,0.00,,,0.00,VWS V14.01,2013-12-28 03:05:00,
2013-12-27 21:10:00,32.2,16.1,28.73,WSW,248,4.0,5.4,51,0.00,,,0.00,VWS V14.01,2013-12-28 03:10:00,
2013-12-27 21:15:00,32.7,17.0,28.73,WNW,292,0.0,4.3,52,0.00,,,0.00,VWS V14.01,2013-12-28 03:15:00,
2013-12-27 21:20:00,32.5,16.4,28.73,WSW,248,1.1,2.2,51,0.00,,,0.00,VWS V14.01,2013-12-28 03:20:00,
2013-12-27 21:25:00,32.7,16.6,28.73,SSW,202,2.0,3.8,51,0.00,,,0.00,VWS V14.01,2013-12-28 03:25:00,
2013-12-27 21:30:00,32.5,16.4,28.73,SSE,158,4.9,4.9,51,0.00,,,0.00,VWS V14.01,2013-12-28 03:30:00,
2013-12-27 21:35:00,31.8,15.8,28.73,SSW,202,2.7,4.9,51,0.00,,,0.00,VWS V14.01,2013-12-28 03:35:00,
2013-12-27 21:40:00,31.1,15.1,28.73,South,180,4.7,4.7,51,0.00,,,0.00,VWS V14.01,2013-12-28 03:40:00,
2013-12-27 21:45:00,30.7,14.8,28.73,SSW,202,1.6,5.4,51,0.00,,,0.00,VWS V14.01,2013-12-28 03:45:00,
2013-12-27 21:50:00,30.6,14.6,28.73,SSW,202,0.0,1.6,51,0.00,,,0.00,VWS V14.01,2013-12-28 03:50:00,
2013-12-27 21:55:00,30.2,14.3,28.73,NNW,338,0.0,0.0,51,0.00,,,0.00,VWS V14.01,2013-12-28 03:55:00,
2013-12-27 22:00:00,30.2,15.1,28.73,NNW,338,2.5,3.1,53,0.00,,,0.00,VWS V14.01,2013-12-28 04:00:00,
2013-12-27 22:05:00,29.5,14.0,28.73,SSW,202,1.6,3.6,52,0.00,,,0.00,VWS V14.01,2013-12-28 04:05:00,
2013-12-27 22:10:00,28.9,13.5,28.73,SSW,202,0.0,1.6,52,0.00,,,0.00,VWS V14.01,2013-12-28 04:10:00,
2013-12-27 22:15:00,28.6,13.2,28.73,SSE,158,2.5,2.7,52,0.00,,,0.00,VWS V14.01,2013-12-28 04:15:00,
2013-12-27 22:20:00,27.9,12.5,28.73,SSW,202,3.4,6.3,52,0.00,,,0.00,VWS V14.01,2013-12-28 04:20:00,
2013-12-27 22:25:00,27.9,13.0,28.73,SSE,158,4.0,4.3,53,0.00,,,0.00,VWS V14.01,2013-12-28 04:25:00,
2013-12-27 22:30:00,27.7,12.8,28.73,SSW,202,3.4,4.0,53,0.00,,,0.00,VWS V14.01,2013-12-28 04:30:00,
2013-12-27 22:35:00,27.5,12.6,28.73,SSW,202,3.8,3.8,53,0.00,,,0.00,VWS V14.01,2013-12-28 04:35:00,
2013-12-27 22:40:00,27.5,13.1,28.73,SSW,202,2.9,3.8,54,0.00,,,0.00,VWS V14.01,2013-12-28 04:40:00,
2013-12-27 22:45:00,27.3,12.9,28.73,SSW,202,2.9,3.6,54,0.00,,,0.00,VWS V14.01,2013-12-28 04:45:00,
2013-12-27 22:50:00,27.1,12.7,28.73,SSW,202,3.1,3.8,54,0.00,,,0.00,VWS V14.01,2013-12-28 04:50:00,
2013-12-27 22:55:00,27.1,12.7,28.73,SSW,202,2.9,3.1,54,0.00,,,0.00,VWS V14.01,2013-12-28 04:55:00,
2013-12-27 23:00:00,27.0,12.6,28.73,SSW,202,2.0,3.6,54,0.00,,,0.00,VWS V14.01,2013-12-28 05:00:00,
2013-12-27 23:05:00,27.1,12.7,28.73,SSW,202,1.1,2.0,54,0.00,,,0.00,VWS V14.01,2013-12-28 05:05:00,
2013-12-27 23:10:00,27.3,12.9,28.73,SSW,202,1.1,1.6,54,0.00,,,0.00,VWS V14.01,2013-12-28 05:10:00,
2013-12-27 23:15:00,27.1,13.1,28.73,SSW,202,1.6,2.5,55,0.00,,,0.00,VWS V14.01,2013-12-28 05:15:00,
2013-12-27 23:20:00,27.0,12.6,28.70,South,180,3.4,3.4,54,0.00,,,0.00,VWS V14.01,2013-12-28 05:20:00,
2013-12-27 23:25:00,27.0,13.0,28.70,SSW,202,2.5,3.4,55,0.00,,,0.00,VWS V14.01,2013-12-28 05:25:00,
2013-12-27 23:30:00,27.0,13.0,28.70,SSW,202,4.0,4.0,55,0.00,,,0.00,VWS V14.01,2013-12-28 05:30:00,
2013-12-27 23:35:00,27.1,13.1,28.70,SSW,202,3.6,4.9,55,0.00,,,0.00,VWS V14.01,2013-12-28 05:35:00,
2013-12-27 23:40:00,27.3,13.7,28.70,South,180,5.4,6.0,56,0.00,,,0.00,VWS V14.01,2013-12-28 05:40:00,
2013-12-27 23:45:00,27.7,14.9,28.70,SSE,158,8.1,8.1,58,0.00,,,0.00,VWS V14.01,2013-12-28 05:45:00,
2013-12-27 23:50:00,28.2,15.8,28.70,SSE,158,5.8,8.1,59,0.00,,,0.00,VWS V14.01,2013-12-28 05:50:00,
2013-12-27 23:55:00,28.2,15.8,28.70,SSE,158,5.6,6.7,59,0.00,,,0.00,VWS V14.01,2013-12-28 05:55:00,